This is the latest recevied weather packets stored in our database for station/object W2CJS. If no packets are shown the sender has not sent any weather packets the latest 10 day(s).
| Time | Temp. | Humidity | Pressure | Rain* | Wind** | Luminosity | Snow |
|---|---|---|---|---|---|---|---|
| 1777520404 | 10.56° C | 89% | 1004.3 hPa | 2.54 mm | - | - | - |
| 1777516204 | 11.11° C | 88% | 1005.6 hPa | 3.3 mm | - | - | - |
| 1777513204 | 11.67° C | 89% | 1005.8 hPa | 1.27 mm | - | - | - |
| 1777510804 | 11.67° C | 88% | 1005.8 hPa | 1.52 mm | - | - | - |
| 1777506004 | 12.78° C | 91% | 1006.8 hPa | 3.3 mm | - | - | - |
| 1777499424 | 17.22° C | 61% | 1005.8 hPa | 0 mm | - | - | - |
| 1777496403 | 17.78° C | 56% | 1006.2 hPa | 0 mm | - | - | - |
| 1777495803 | 17.78° C | 55% | 1006.4 hPa | 0 mm | - | - | - |
| 1777494603 | 18.33° C | 55% | 1006.5 hPa | 0 mm | - | - | - |
| 1777494003 | 18.33° C | 54% | 1006.7 hPa | 0 mm | - | - | - |
| 1777490403 | 18.89° C | 52% | 1007.5 hPa | 0 mm | - | - | - |
| 1777486224 | 18.89° C | 53% | 1008.4 hPa | 0 mm | - | - | - |
| 1777483204 | 17.22° C | 59% | 1009.4 hPa | 0 mm | - | - | - |
| 1777480824 | 18.33° C | 56% | 1009.3 hPa | 0 mm | - | - | - |
| 1777479003 | 17.78° C | 58% | 1009.5 hPa | 0 mm | - | - | - |
| 1777476003 | 15.56° C | 64% | 1010.2 hPa | 0 mm | - | - | - |
| 1777468803 | 12.78° C | 68% | 1011.7 hPa | 0 mm | - | - | - |
| 1777464604 | 10.56° C | 72% | 1012.6 hPa | 0 mm | - | - | - |
| 1777464003 | 10.56° C | 71% | 1013.2 hPa | 0 mm | - | - | - |
| 1777459804 | 10° C | 71% | 1013 hPa | 0 mm | - | - | - |
| 1777458603 | 10° C | 71% | 1013.1 hPa | 0 mm | - | - | - |
| 1777457424 | 10° C | 71% | 1013.1 hPa | 0 mm | - | - | - |
| 1777456203 | 10° C | 71% | 1013 hPa | 0 mm | - | - | - |
| 1777455603 | 10° C | 70% | 1012.9 hPa | 0 mm | - | - | - |
| 1777453203 | 10° C | 74% | 1012.4 hPa | 0 mm | - | - | - |
* Rain latest hour (hover to see other rain measurements)
** Current wind speed in m/s (hover to see current wind gust speed)